Дата Время Давление Темп. Влажн. Скор.ветра Напр.ветра Макс.ветер Осадки/час Осадки
20.07.18 00:00 736.2 19.5 96.4 1.7 30 3.8 0.4 4.6
19.07.18 23:00 736.4 19.5 96.3 1.5 30 3.8 0 4.2
19.07.18 22:00 736.6 19.6 96.1 1.9 33 4.4 0.2 4.2
19.07.18 21:00 736.7 19.6 95.6 1.9 31 4.6 0.2 4
19.07.18 20:00 736.6 19.6 94.5 1.9 41 4.8 2.2 3.8
19.07.18 19:00 736.7 19.8 93.1 1.8 38 4.3 0.4 1.6
19.07.18 18:00 737.3 20.4 87.6 2.1 48 5 1 1.2
19.07.18 17:00 736 23.8 71.9 2 39 5.5 0 0.2
19.07.18 16:00 736.4 23 75.9 1.8 38 5.8 0 0.2
19.07.18 15:00 736.2 23 75 2.5 52 6.6 0 0.2
19.07.18 14:00 736.2 22.4 76.6 1.9 45 5 0 0.2
19.07.18 13:00 737 22.3 75.7 2.3 40 6.4 0 0.2
19.07.18 12:00 736.3 23.2 71.8 1.9 79 5 0 0.2
19.07.18 11:00 736.2 22.5 74 2.1 48 5.8 0 0.2
19.07.18 10:00 736.4 22 76.7 2.4 55 6.8 0 0.2
19.07.18 09:00 736.4 21.5 81.6 2.2 33 5.2 0 0.2
19.07.18 08:00 736.7 20.3 87 1.7 34 4 0 0.2
19.07.18 07:00 736.8 20 88.6 1.8 36 3.9 0.2 0.2
19.07.18 06:00 736.9 19.4 90.2 1.7 36 3.7 0 0
19.07.18 05:00 736.7 18.9 92.3 1.9 38 3.7 0 0
19.07.18 04:00 736.8 19 92.7 1.8 39 3.7 0 0
19.07.18 03:00 736.8 19.2 92.7 1.6 43 4.1 0 0
19.07.18 02:00 736.7 19.3 93.6 1.7 45 4.3 0 0
19.07.18 01:00 736.6 19.4 94.3 2 40 5.2 0 0